BFIBOEING FIELD/KING COUNTY INTL
METARs for nearby airports:
N 0 21' KBFI 101953Z 14008KT 10SM SCT023 OVC060 07/04 A3015
SE 4 32' KRNT 102013Z 17005KT 8SM BKN010 OVC050 06/03 A3015
S 4 432' KSEA 101953Z 19006KT 10SM SCT007 BKN047 OVC060 06/03 A3014
W 18 444' KPWT 102001Z 20009KT 10SM -RA BKN005 OVC012 06/05 A3013
SW 19 294' KTIW 101953Z 19005KT 3SM -RA BR BKN009 OVC026 05/03 A3015
N 22 607' KPAE 101953Z 15009KT 4SM -RA BR SCT049 OVC060 05/03 A3012
S 24 322' KTCM 101958Z 12005KT 4SM -RA BR FEW006 OVC032 05/05 A3015
S 25 537' KPLU 101955Z 00000KT 8SM OVC004 04/04 A3015
S 29 301' KGRF 101958Z 06003KT 9SM -RA SCT006 BKN029 OVC039 05/05 A3014
N 38 141' KAWO 101956Z 00000KT 10SM -RA OVC065 05/03 A3015
SW 38 272' KSHN 102015Z 00000KT 3SM -RA BR BKN004 BKN020 OVC025 06/05 A3011
SW 41 207' KOLM 101954Z 23004KT 2SM -RA BR OVC006 06/05 A3014
N 51 47' KNUW 101956Z 10010KT 7SM -RA FEW006 BKN010 OVC014 07/04 A3016
N 56 145' KBVS 102015Z 00000KT 10SM BKN070 05/05 A3013
NW 57 13' KNOW 101950Z 00000KT 10SM OVC013 07/04 A3011
SW 58 177' KCLS 102015Z VRB05KT 4SM -RA FEW008 FEW012 OVC033 06/06 A3014
NW 59 291' KCLM 102001Z 10003KT 10SM BKN017 OVC080 07/04 A3010
NW 66 112' KFHR 101953Z 07005KT 5SM -RA BR OVC005 06/04 A3012
SW 74 17' KHQM 102009Z 09008KT 2 1/2SM -RA BR FEW005 OVC010 06/06 A3011
N 74 34' KORS 102015Z 00000KT 6SM -RA OVC007 06/05 A3011
N 76 171' KBLI 101953Z 03004KT 6SM HZ FEW004 OVC085 06/02 A3013
E 78 1763' KELN 101953Z 10005KT 10SM OVC010 00/M02 A3018
NW 80 64' CYYJ 102000Z 25003KT 5SM -RA BR BKN005 OVC020 05/05 A3011
E 85 1248' KEAT 102014Z 00000KT 10SM OVC015 M01/M03 A3022
S 88 20' KKLS 102012Z 15006KT 8SM RA BKN007 OVC032 05/04 A3017
SE 92 1098' KYKM 101953Z VRB03KT 10SM OVC015 02/M01 A3022
W 94 193' KUIL 101953Z 15005KT 10SM OVC011 08/07 A3007
TAFs for nearby airports:
N 0 21' KBFI TAF
  AMD KBFI 101934Z 1020/1118 16007KT P6SM SCT015 OVC060
  TEMPO 1021/1101 5SM -RA BKN015 OVC040
  FM110200 18008KT P6SM BKN020 BKN040
  FM110800 15005KT P6SM OVC018
  FM111500 15007KT P6SM BKN018 BKN050 OVC120
S 4 432' KSEA TAF
  AMD KSEA 101932Z 1020/1124 18010KT P6SM SCT015 OVC060
  TEMPO 1021/1101 5SM -RA BKN015 OVC040
  FM110200 17008KT P6SM BKN020 BKN040
  FM110800 15005KT P6SM OVC015
  FM111500 15008KT P6SM BKN015 BKN050 OVC120
  FM112000 15012KT P6SM SCT020 OVC050
W 18 444' KPWT TAF
  AMD KPWT 101817Z 1018/1118 20008KT P6SM SCT008 OVC050
  TEMPO 1018/1020 5SM BR BKN008 OVC050
  FM102100 18008KT P6SM -RA SCT010 OVC035
  TEMPO 1021/1101 5SM -RA BR BKN010 OVC025
  FM110200 18008KT P6SM BKN020 BKN040
  FM110800 14005KT P6SM OVC010
  FM111500 14008KT P6SM BKN012 BKN050 OVC120
N 22 607' KPAE TAF
  AMD KPAE 101908Z 1019/1118 15010KT P6SM SCT010 BKN050 OVC090
  TEMPO 1019/1021 5SM BR BKN010 OVC050
  FM102100 15010KT 5SM -RA SCT015 OVC040
  FM110200 16010KT P6SM BKN015 BKN040
  FM110800 16006KT P6SM OVC015
  FM111500 14012KT P6SM BKN015 BKN050 OVC120
S 24 322' KTCM TAF TAF
  AMD KTCM 101351Z 1013/1119 VRB06KT 4800 BR OVC006 QNH3015INS
  BECMG 1018/1019 19008KT 9999 NSW BKN015 OVC060 620609 QNH3010INS
  BECMG 1021/1022 20009KT 8000 -SHRA BKN010 OVC040 610509 QNH3007INS
  BECMG 1104/1105 VRB06KT 9999 NSW BKN008 OVC020 620509 QNH3005INS
  BECMG 1109/1110 VRB06KT 8000 -SHRA BKN015 620509 QNH2998INS TX07/1022Z TN02/1112Z
S 29 301' KGRF TAF
  AMD KGRF 101951Z 1019/1119 VRB06KT 9999 BKN025 OVC030 QNH3012INS
  TEMPO 1019/1021 BKN007
  BECMG 1021/1022 VRB06KT 8000 -RA BR SCT020 OVC030 620604 QNH3010INS
  TEMPO 1022/1106 4800 -RA OVC010
  BECMG 1105/1106 20009KT 9999 VCSH OVC010 QNH3006INS TX07/1022Z TN05/1019Z
SW 41 207' KOLM KOLM 101935Z 1020/1118 20006KT 5SM -RA SCT007 OVC035
  TEMPO 1020/1024 2SM -RA BR BKN007 OVC025
  FM110200 19007KT P6SM BKN020 BKN040
  FM110800 19005KT P6SM OVC015
  FM111500 12005KT P6SM BKN015 BKN050 OVC120
N 51 47' KNUW TAF KNUW 1015/1115 12007KT 9999 VCSH BKN005 OVC020 QNH3014INS
  TEMPO 1015/1020 VRB06KT 6000 -RA BR SCT005 OVC012
  FM102000 13010KT 9999 VCSH SCT006 BKN015 BKN120 BKN250 641008 QNH3009INS
  TEMPO 1020/1102 8000 -SHRA BR SCT012 BKN020 OVC050 T10/1021Z T05/1113Z FS30004
NW 59 291' KCLM TAF KCLM 101720Z 1018/1118 00000KT P6SM OVC010
  FM102100 09005KT 5SM -RA BKN015 OVC030
  FM110200 VRB04KT P6SM BKN020 BKN040
  FM110800 00000KT P6SM OVC015
  FM111500 09006KT P6SM BKN015 BKN050 OVC120
SW 74 17' KHQM TAF KHQM 101720Z 1018/1118 09007KT 5SM -RA BR OVC015
  TEMPO 1018/1020 3SM -RA BR OVC010
  FM102000 16008KT 5SM -RA BKN010 OVC030
  FM110000 18008KT P6SM BKN015 BKN030
  FM110600 15006KT P6SM OVC015
  FM111200 15012KT P6SM BKN015 BKN050 OVC120
N 76 171' KBLI TAF KBLI 101720Z 1018/1118 09006KT 5SM BR BKN003 BKN010
  FM102100 16008KT 5SM -RA BKN015 OVC030
  FM110200 16010KT P6SM BKN020 BKN040
  FM110800 16006KT P6SM OVC015
  FM111500 16012KT P6SM BKN015 BKN050 OVC120
E 85 1248' KEAT KEAT 101954Z 1020/1118 10003KT P6SM OVC012
  FM110100 33003KT 2SM -SN BR OVC007
  FM110600 33002KT 1SM BR OVC003
  FM111500 00000KT 1/2SM FG OVC002
SE 92 1098' KYKM KYKM 101723Z 1018/1118 VRB03KT 5SM BR OVC010
  FM110200 23003KT 3SM -RA BR SCT005 BKN015
  FM110800 VRB03KT 3SM BR SCT005 BKN015
Area forecast:
000
FAUS46 KKCI 101945
FA6W  
SFOC FA 101945
SYNOPSIS AND VFR CLDS/WX
SYNOPSIS VALID UNTIL 111400
CLDS/WX VALID UNTIL 110800...OTLK VALID 110800-111400
WA OR CA AND CSTL WTRS
.
SEE AIRMET SIERRA FOR IFR CONDS AND MTN OBSCN.
TS IMPLY SEV OR GTR TURB SEV ICE LLWS AND IFR CONDS.
NON MSL HGTS DENOTED BY AGL OR CIG.
.
SYNOPSIS...UPR LVL TROF WAS LOCATED NR 130W. MOIST SWLY FLOW
EXTDS FROM PAC NW EWD INTO NRN ROCKIES. HIGH PRES RIDGE WAS OVR
MUCH OF THE REST OF THE AREA. BY 14Z...UPR LVL TROF WILL EXTD
FROM WA-OR SWD INTO CA.  ..STREIB..
.
WA CASCDS WWD
CSTL SXNS
CSTLN-INLAND...SCT-BKN025 BKN035-050 TOPS 120-140. ISOL -SHRA.
   OTLK...MVFR CIGS SHRA BR.
PUGET SOUND-INTR VLY...SCT-BKN020 BKN-OVC035-050 TOPS 160 BKN CI.
   WDLY SCT -SHRA. OTLK...MVFR CIGS SHRA.
CASCDS...BKN-OVC050-070 TOPS FL180. BKN CI ABV. WDLY SCT -SHRA.
   OTLK...MVFR CIGS SHRA.
.
WA E OF CASCDS
CNTRL WA...SCT140 OVC CI. BECMG 2302 SCT080 BKN120 LYRD FL240.
   OTLK...VFR.
ERN WA...SCT-BKN140-160 LYRD FL240. BECMG 0508 BKN080 OVC120
   LYRD FL240 ISOL -SHRA DVLPG. OTLK...VFR.
.
OR CASCDS WWD
CSTL SXNS
CSTLN-INLAND...SCT-BKN020 BKN-OVC035-050 TOPS FL180. WDLY SCT
   -SHRA. OTLK...MVFR CIGS SHRA.
WILLAMETTE VLY/SWRN INTR...SCT-BKN020 BKN-OVC035-050 TOPS FL180.
   WDLY SCT -SHRA. OTLK...MVFR CIGS SHRA.
CASCDS...SCT-BKN060 BKN-OVC080-100 TOPS FL180 ISOL -SHRA.
   OTLK...MVFR CIGS SHRA.
.
OR E OF CASCDS
CNTRL...SCT100-120 BKN150 LYRD FL240. OTLK...VFR.
ERN...SCT130-150 BKN CI. BECMG 0205 OVC120-140 LYRD FL240.
   OTLK...VFR.
.
NRN CA...STS-SAC-TVL LN NWD
CSTL SXNS...
   FOT NWD...SCT025 BKN CI ABV. BECMG 0205 SCT020 OVC050 TOPS
      160. ISOL -SHRA. OTLK...IFR CIGS.
   S OF FOT...SCT-BKN010 TOPS 030-040. OTLK...IFR CIGS.
REST OF AREA...SKC OCNL SCT CI. OCNL VYS 3-5SM FU HZ.
   OTLK...VFR.
SAC VLY...
   NRN AND CNTRL SXNS...SKC. OTLK...VFR.
   SRN SXNS...SKC. OCNL VIS 3-5SM FU HZ. OTLK...MVFR FU HZ.
SHASTA-SISKIYOUS-NERN CA...
NRN SIERRAS...SKC OCNL SCT CI. WINDS SLY G25KT. OTLK...VFR WIND.
.
CNTRL CA
CSTL SXNS...
   CSTLN...SKC OCNL SCT010. BECMG 0508 OCNL CIGS BKN-SCT010 TOPS
      020-030. OTLK...IFR CIGS.
   INLAND...SKC. OTLK...VFR BECMG 1114 IFR CIGS BR.
SAN JOAQUIN VLY...SKC. OTLK...VFR.
SRN SIERRAS..SKC. OTLK...VFR.
.
SRN CA..VBG-NID-60NNW BIH LN SWD
CSTL SXNS...
   CSTLN...
      EXTRM SRN SXNS...SKC. BECMG 0205 SCT010. BECMG 0508 CIGS
         BKN-OVC010 TOPS 030. OTLK...IFR CIGS.
      REST OF AREA...SKC. OTLK...VFR BECMG 0811 IFR CIGS BR.
   INLAND...SKC OCNL FEW CI. OTLK...VFR.
INTR MTNS-MOJAVE-SRN DESERTS...SKC OCNL FEW CI. OTLK...VFR.
.
CSTL WTRS
WA...SCT-BKN035-050 TOPS 100-120. ISOL -SHRA. OTLK...VFR.
OR...
NWRN HLF...SCT-BKN035-050 TOPS 100-120. ISOL -SHRA. OTLK...VFR.
SERN HLF...SCT-BKN025 BKN035-050 TOPS FL180 BKN CI ABV. WDLY SCT
   -SHRA. OTLK...MVFR CIGS SHRA.
CA...
NRN CA...
   FOT NWD...SCT025 BKN CI ABV. BECMG 0205 SCT020 OVC050 TOPS
      160. ISOL -SHRA. OTLK...IFR CIGS.
   S OF FOT...SCT-BKN010 TOPS 030-040. OTLK...IFR CIGS.
CNTRL CA...SCT-BKN010 TOPS 030-040. OTLK...IFR CIGS.
SRN CA...
   OUTER CSTL WTRS...CIGS BKN010-020 TOPS 030-050.
      OTLK...IFR CIGS.
   ADJ CSTL WTRS...SKC. OCNL AGL SCT010. OTLK...VFR BECMG 0811
      IFR CIGS BR.
.
THE AREA FORECAST WILL TERMINATE AT 2359Z ON 10 OCTOBER 2017. IN
PLACE OF THE AREA FORECAST...PLEASE SEE THE GRAPHICAL FORECAST AT
WWW.AVIATIONWEATHER.GOV/GFA. GRAPHICAL AND TEXT AIRMETS WILL
CONTINUE AS REGULARLY SCHEDULED.
....

Shortcut to this page: http://wxbay.com.

Data may contain errors.